Time;durP1;ratioP1;P1;durP2;ratioP2;P2;SDS_P1;SDS_P2;PMS_P1;PMS_P2;Temp;Humidity;BMP_temperature;BMP_pressure;BME280_temperature;BME280_humidity;BME280_pressure;Samples;Min_cycle;Max_cycle;Signal;HPM_P1;HPM_P2
2023/12/20 00:00:26;;;;;;;3.25;1.30;;;12.00;99.90;;;;;;5071496;28;20025;-68
2023/12/20 00:02:52;;;;;;;3.55;1.48;;;12.10;99.90;;;;;;5071535;28;20059;-69
2023/12/20 00:05:17;;;;;;;3.83;1.67;;;12.10;99.90;;;;;;5071314;28;20024;-69
2023/12/20 00:07:43;;;;;;;3.33;1.60;;;12.30;99.90;;;;;;5071792;28;20039;-69
2023/12/20 00:10:09;;;;;;;3.97;1.60;;;12.40;99.90;;;;;;5071087;28;20483;-69
2023/12/20 00:12:34;;;;;;;3.15;1.40;;;12.60;99.90;;;;;;5071240;28;20032;-69
2023/12/20 00:15:00;;;;;;;2.50;1.42;;;12.70;99.90;;;;;;5071173;28;20119;-69
2023/12/20 00:17:26;;;;;;;6.57;1.60;;;12.90;99.90;;;;;;5071315;28;20074;-69
2023/12/20 00:19:51;;;;;;;3.75;1.60;;;13.10;99.90;;;;;;5071211;28;20107;-70
2023/12/20 00:22:17;;;;;;;6.88;2.15;;;13.00;99.90;;;;;;5071699;28;20447;-69
2023/12/20 00:24:43;;;;;;;9.82;2.30;;;13.10;99.90;;;;;;5070848;28;20048;-68
2023/12/20 00:27:08;;;;;;;11.27;2.33;;;13.10;99.90;;;;;;5071163;28;20025;-69
2023/12/20 00:29:34;;;;;;;11.02;2.60;;;13.00;99.90;;;;;;5071178;28;20028;-68
2023/12/20 00:31:59;;;;;;;13.07;2.83;;;13.00;99.90;;;;;;5071447;28;20029;-68
2023/12/20 00:34:25;;;;;;;14.23;2.88;;;13.10;99.90;;;;;;5070942;28;20075;-68
2023/12/20 00:36:51;;;;;;;16.67;3.08;;;13.10;99.90;;;;;;5070990;28;20037;-68
2023/12/20 00:39:17;;;;;;;15.80;3.10;;;12.90;99.90;;;;;;5071161;28;20052;-68
2023/12/20 00:41:42;;;;;;;16.58;3.03;;;12.80;99.90;;;;;;5071002;28;20101;-68
2023/12/20 00:44:08;;;;;;;16.88;3.63;;;12.70;99.90;;;;;;5070912;28;20079;-68
2023/12/20 00:46:34;;;;;;;17.85;3.75;;;12.60;99.90;;;;;;5070888;28;20039;-68
2023/12/20 00:48:59;;;;;;;14.30;3.00;;;12.60;99.90;;;;;;5071252;28;20031;-68
2023/12/20 00:51:25;;;;;;;17.42;3.97;;;12.50;99.90;;;;;;5070406;28;20025;-68
2023/12/20 00:53:54;;;;;;;15.32;3.20;;;12.40;99.90;;;;;;5070903;28;20029;-68
2023/12/20 00:56:20;;;;;;;18.83;3.72;;;12.40;99.90;;;;;;5073100;28;20490;-69
2023/12/20 00:58:46;;;;;;;19.70;3.70;;;12.40;99.90;;;;;;5074833;28;20032;-68
2023/12/20 01:01:12;;;;;;;16.33;3.30;;;12.30;99.90;;;;;;5075018;28;20055;-68
2023/12/20 01:03:38;;;;;;;19.35;3.50;;;12.30;99.90;;;;;;5074904;28;20029;-68
2023/12/20 01:06:05;;;;;;;18.65;3.80;;;12.30;99.90;;;;;;5074318;28;20040;-68
2023/12/20 01:08:30;;;;;;;20.92;4.28;;;12.30;99.90;;;;;;5074787;28;20033;-68
2023/12/20 01:10:56;;;;;;;17.35;3.63;;;12.20;99.90;;;;;;5074623;28;20050;-68
2023/12/20 01:13:22;;;;;;;20.73;4.05;;;12.10;99.90;;;;;;5074694;28;20397;-68
2023/12/20 01:15:48;;;;;;;21.95;4.55;;;12.00;99.90;;;;;;5074931;28;20041;-68
2023/12/20 01:18:14;;;;;;;22.25;4.30;;;12.00;99.90;;;;;;5074372;28;20016;-68
2023/12/20 01:20:40;;;;;;;16.33;4.03;;;12.00;99.90;;;;;;5074152;28;20024;-68
2023/12/20 01:23:06;;;;;;;20.83;4.35;;;12.00;99.90;;;;;;5074361;28;20048;-68
2023/12/20 01:25:32;;;;;;;19.48;4.35;;;11.90;99.90;;;;;;5074721;28;20525;-69
2023/12/20 01:27:57;;;;;;;19.02;3.97;;;11.90;99.90;;;;;;5074297;28;20029;-68
2023/12/20 01:30:24;;;;;;;17.67;3.88;;;11.80;99.90;;;;;;5074269;28;20043;-68
2023/12/20 01:32:49;;;;;;;18.60;4.30;;;11.80;99.90;;;;;;5074662;28;20028;-68
2023/12/20 01:35:15;;;;;;;17.40;4.15;;;11.80;99.90;;;;;;5073765;28;20039;-68
2023/12/20 01:37:41;;;;;;;18.63;3.92;;;11.80;99.90;;;;;;5074051;28;20408;-68
2023/12/20 01:40:07;;;;;;;16.40;3.45;;;11.70;99.90;;;;;;5073937;28;20032;-68
2023/12/20 01:42:33;;;;;;;14.40;3.25;;;11.70;99.90;;;;;;5074023;28;20581;-68
2023/12/20 01:44:59;;;;;;;18.25;3.67;;;11.70;99.90;;;;;;5073963;28;20123;-68
2023/12/20 01:47:26;;;;;;;18.42;4.10;;;11.60;99.90;;;;;;5073825;28;20024;-68
2023/12/20 01:49:52;;;;;;;16.80;3.70;;;11.60;99.90;;;;;;5074114;28;20025;-68
2023/12/20 01:52:19;;;;;;;16.92;3.45;;;11.60;99.90;;;;;;5073941;28;20054;-69
2023/12/20 01:54:45;;;;;;;10.98;3.58;;;11.60;99.90;;;;;;5073755;28;20475;-69
2023/12/20 01:57:11;;;;;;;12.90;3.35;;;11.80;99.90;;;;;;5074032;28;20029;-69
2023/12/20 01:59:39;;;;;;;11.88;3.13;;;12.00;99.90;;;;;;5074108;28;20490;-69
2023/12/20 02:02:05;;;;;;;13.13;3.20;;;12.10;99.90;;;;;;5073291;28;20032;-69
2023/12/20 02:04:31;;;;;;;11.18;2.83;;;12.10;99.90;;;;;;5073825;28;20024;-68
2023/12/20 02:06:58;;;;;;;10.52;2.67;;;12.20;99.90;;;;;;5073307;28;20025;-69
2023/12/20 02:09:24;;;;;;;10.60;2.67;;;12.30;99.90;;;;;;5073601;28;20059;-68
2023/12/20 02:11:50;;;;;;;10.02;2.78;;;12.40;99.90;;;;;;5073496;28;20064;-69
2023/12/20 02:14:15;;;;;;;6.88;2.72;;;12.20;99.90;;;;;;5073471;28;20017;-69
2023/12/20 02:16:41;;;;;;;10.15;2.88;;;12.30;99.90;;;;;;5073336;28;20029;-69
2023/12/20 02:19:13;;;;;;;9.85;3.10;;;12.40;99.90;;;;;;5073281;28;20104;-69
2023/12/20 02:21:39;;;;;;;9.70;2.70;;;12.30;99.90;;;;;;5073339;28;20060;-69
2023/12/20 02:24:05;;;;;;;15.27;2.75;;;12.40;99.90;;;;;;5073712;28;20499;-68
2023/12/20 02:26:33;;;;;;;10.80;2.95;;;12.30;99.90;;;;;;5073316;28;20039;-68
2023/12/20 02:28:59;;;;;;;12.68;3.13;;;12.20;99.90;;;;;;5073264;28;20017;-68
2023/12/20 02:31:25;;;;;;;11.93;3.35;;;12.00;99.90;;;;;;5072961;28;20020;-68
2023/12/20 02:33:50;;;;;;;11.48;3.03;;;11.90;99.90;;;;;;5072834;28;20429;-68
2023/12/20 02:36:16;;;;;;;9.10;3.00;;;11.80;99.90;;;;;;5073149;28;20155;-68
2023/12/20 02:38:41;;;;;;;8.85;2.45;;;11.70;99.90;;;;;;5073097;28;20562;-69
2023/12/20 02:41:07;;;;;;;10.40;3.17;;;11.70;99.90;;;;;;5072998;28;20043;-68
2023/12/20 02:43:33;;;;;;;9.95;2.80;;;11.70;99.90;;;;;;5073437;28;20025;-68
2023/12/20 02:45:58;;;;;;;7.90;2.47;;;11.60;99.90;;;;;;5072726;28;20111;-68
2023/12/20 02:48:24;;;;;;;7.32;2.28;;;11.60;99.90;;;;;;5072551;28;20028;-68
2023/12/20 02:50:50;;;;;;;7.30;2.30;;;11.60;99.90;;;;;;5072984;28;20036;-68
2023/12/20 02:53:16;;;;;;;8.70;2.25;;;11.60;99.90;;;;;;5072835;28;20044;-68
2023/12/20 02:55:42;;;;;;;6.53;2.50;;;11.50;99.90;;;;;;5072603;28;20040;-68
2023/12/20 02:58:07;;;;;;;7.00;2.50;;;11.50;99.90;;;;;;5073006;28;20039;-68
2023/12/20 03:00:34;;;;;;;12.98;3.22;;;11.50;99.90;;;;;;5072493;28;20301;-69
2023/12/20 03:02:59;;;;;;;12.02;3.53;;;11.50;99.90;;;;;;5072246;28;20116;-69
2023/12/20 03:05:25;;;;;;;13.05;3.20;;;11.40;99.90;;;;;;5072425;28;20119;-69
2023/12/20 03:07:51;;;;;;;13.05;3.72;;;11.40;99.90;;;;;;5072500;28;20081;-69
2023/12/20 03:10:19;;;;;;;9.93;3.30;;;11.30;99.90;;;;;;5072284;28;20025;-68
2023/12/20 03:12:44;;;;;;;10.00;2.78;;;11.40;99.90;;;;;;5072352;28;20025;-69
2023/12/20 03:15:10;;;;;;;13.02;2.80;;;11.30;99.90;;;;;;5072105;28;20048;-69
2023/12/20 03:17:36;;;;;;;12.05;3.08;;;11.30;99.90;;;;;;5071626;28;20306;-69
2023/12/20 03:20:02;;;;;;;11.00;2.95;;;11.30;99.90;;;;;;5071699;28;20033;-68
2023/12/20 03:22:28;;;;;;;11.20;3.17;;;11.30;99.90;;;;;;5072438;28;20016;-68
2023/12/20 03:24:53;;;;;;;8.43;2.40;;;11.30;99.90;;;;;;5070725;28;20035;-68
2023/12/20 03:27:19;;;;;;;10.48;2.70;;;11.20;99.90;;;;;;5071997;28;20023;-68
2023/12/20 03:29:44;;;;;;;9.45;2.90;;;11.20;99.90;;;;;;5071954;28;20445;-68
2023/12/20 03:32:10;;;;;;;9.48;2.47;;;11.20;99.90;;;;;;5071659;28;20556;-69
2023/12/20 03:34:36;;;;;;;10.15;2.55;;;11.20;99.90;;;;;;5071887;28;20069;-68
2023/12/20 03:37:01;;;;;;;11.52;2.75;;;11.20;99.90;;;;;;5071963;28;20020;-69
2023/12/20 03:39:27;;;;;;;12.00;2.97;;;11.20;99.90;;;;;;5072099;28;20033;-68
2023/12/20 03:41:53;;;;;;;10.45;2.95;;;11.10;99.90;;;;;;5070529;28;20021;-68
2023/12/20 03:44:18;;;;;;;10.43;2.83;;;11.20;99.90;;;;;;5072359;28;20127;-69
2023/12/20 03:46:45;;;;;;;8.45;2.50;;;11.40;99.90;;;;;;5072223;28;20547;-69
2023/12/20 03:49:11;;;;;;;9.27;2.60;;;11.50;99.90;;;;;;5072563;28;20028;-69
2023/12/20 03:51:37;;;;;;;7.90;2.45;;;11.50;99.90;;;;;;5072392;28;20498;-69
2023/12/20 03:54:03;;;;;;;11.45;2.78;;;11.60;99.90;;;;;;5072620;28;20036;-70
2023/12/20 03:56:28;;;;;;;9.82;2.50;;;11.70;99.90;;;;;;5072467;28;20027;-69
2023/12/20 03:58:54;;;;;;;8.93;2.42;;;11.80;99.90;;;;;;5072173;28;20021;-70
2023/12/20 04:01:20;;;;;;;9.25;2.33;;;11.90;99.90;;;;;;5072033;28;20036;-70
2023/12/20 04:03:45;;;;;;;11.35;2.53;;;11.90;99.90;;;;;;5072369;28;20016;-70
2023/12/20 04:06:17;;;;;;;12.15;3.17;;;11.90;99.90;;;;;;5072635;28;20032;-70
2023/12/20 04:08:43;;;;;;;11.40;3.15;;;11.90;99.90;;;;;;5072434;28;20020;-69
2023/12/20 04:11:08;;;;;;;7.90;2.35;;;11.90;99.90;;;;;;5072125;28;20115;-69
2023/12/20 04:13:34;;;;;;;8.90;2.63;;;11.90;99.90;;;;;;5072065;28;20024;-69
2023/12/20 04:15:59;;;;;;;13.65;2.90;;;11.60;99.90;;;;;;5071992;28;20036;-69
2023/12/20 04:18:25;;;;;;;11.80;2.70;;;11.50;99.90;;;;;;5072607;28;20016;-69
2023/12/20 04:20:51;;;;;;;9.63;2.63;;;11.40;99.90;;;;;;5072044;28;20408;-68
2023/12/20 04:23:17;;;;;;;12.38;3.20;;;11.30;99.90;;;;;;5072041;28;20394;-69
2023/12/20 04:25:43;;;;;;;9.07;2.58;;;11.20;99.90;;;;;;5072056;28;20028;-69
2023/12/20 04:28:09;;;;;;;13.50;3.30;;;11.10;99.90;;;;;;5072314;28;20029;-69
2023/12/20 04:30:35;;;;;;;10.20;2.42;;;11.20;99.90;;;;;;5071163;28;20032;-69
2023/12/20 04:33:00;;;;;;;10.38;2.70;;;11.10;99.90;;;;;;5072389;28;20118;-69
2023/12/20 04:35:26;;;;;;;9.77;2.75;;;11.10;99.90;;;;;;5071777;28;20387;-69
2023/12/20 04:37:52;;;;;;;7.43;2.60;;;11.00;99.90;;;;;;5072156;28;20016;-69
2023/12/20 04:40:17;;;;;;;8.95;2.75;;;11.00;99.90;;;;;;5072361;28;20032;-69
2023/12/20 04:42:43;;;;;;;11.27;2.83;;;11.00;99.90;;;;;;5071797;28;20033;-69
2023/12/20 04:45:09;;;;;;;8.45;2.65;;;11.00;99.90;;;;;;5071296;28;20141;-69
2023/12/20 04:47:35;;;;;;;10.73;3.08;;;11.00;99.90;;;;;;5071664;28;20082;-69
2023/12/20 04:50:00;;;;;;;9.10;2.78;;;10.90;99.90;;;;;;5071837;28;20028;-69
2023/12/20 04:52:26;;;;;;;8.65;2.60;;;10.90;99.90;;;;;;5071577;28;20028;-69
2023/12/20 04:54:52;;;;;;;13.13;3.20;;;10.90;99.90;;;;;;5071757;28;20122;-69
2023/12/20 04:57:17;;;;;;;14.23;3.22;;;10.90;99.90;;;;;;5072111;28;20021;-69
2023/12/20 04:59:43;;;;;;;12.25;3.13;;;10.90;99.90;;;;;;5071361;28;20088;-69
2023/12/20 05:02:09;;;;;;;12.15;2.75;;;10.80;99.90;;;;;;5071717;28;20028;-69
2023/12/20 05:04:34;;;;;;;16.83;3.63;;;10.80;99.90;;;;;;5071813;28;20103;-69
2023/12/20 05:07:00;;;;;;;12.32;2.97;;;10.80;99.90;;;;;;5071783;28;20024;-69
2023/12/20 05:09:26;;;;;;;10.77;2.80;;;10.80;99.90;;;;;;5071663;28;20039;-69
2023/12/20 05:11:51;;;;;;;14.60;3.20;;;10.70;99.90;;;;;;5071941;28;20078;-69
2023/12/20 05:14:17;;;;;;;12.23;3.08;;;10.70;99.90;;;;;;5071067;28;20028;-69
2023/12/20 05:16:43;;;;;;;11.75;3.33;;;10.70;99.90;;;;;;5071486;28;20028;-69
2023/12/20 05:19:08;;;;;;;13.25;3.13;;;10.70;99.90;;;;;;5071517;28;20032;-69
2023/12/20 05:21:34;;;;;;;14.60;3.58;;;10.70;99.90;;;;;;5071862;28;20023;-69
2023/12/20 05:24:00;;;;;;;14.07;3.20;;;10.60;99.90;;;;;;5071280;28;20031;-69
2023/12/20 05:26:26;;;;;;;14.38;4.00;;;10.50;99.90;;;;;;5071426;28;20111;-69
2023/12/20 05:28:52;;;;;;;12.48;3.17;;;10.50;99.90;;;;;;5071133;28;20100;-69
2023/12/20 05:31:18;;;;;;;15.10;3.67;;;10.40;99.90;;;;;;5071240;28;20471;-70
2023/12/20 05:33:43;;;;;;;13.63;3.90;;;10.60;99.90;;;;;;5071606;28;20017;-69
2023/12/20 05:36:11;;;;;;;14.98;4.15;;;10.80;99.90;;;;;;5071252;28;20514;-69
2023/12/20 05:38:37;;;;;;;18.70;4.22;;;10.90;99.90;;;;;;5071469;28;20497;-69
2023/12/20 05:41:03;;;;;;;15.38;4.38;;;10.90;99.90;;;;;;5071182;28;20028;-70
2023/12/20 05:43:29;;;;;;;11.95;3.67;;;11.00;99.90;;;;;;5074703;28;20555;-69
2023/12/20 05:45:54;;;;;;;16.00;4.30;;;11.20;99.90;;;;;;5074714;28;20045;-70
2023/12/20 05:48:20;;;;;;;14.90;3.40;;;11.10;99.90;;;;;;5074904;28;20040;-70
2023/12/20 05:50:46;;;;;;;12.70;3.88;;;11.20;99.90;;;;;;5074804;28;20031;-70
2023/12/20 05:53:11;;;;;;;15.88;4.07;;;11.20;99.90;;;;;;5075014;28;20028;-70
2023/12/20 05:55:37;;;;;;;12.82;3.63;;;11.20;99.90;;;;;;5074613;28;20060;-70
2023/12/20 05:58:03;;;;;;;15.48;3.75;;;11.20;99.90;;;;;;5074388;28;20020;-69
2023/12/20 06:00:29;;;;;;;15.55;3.83;;;11.20;99.90;;;;;;5074786;28;20028;-69
2023/12/20 06:02:54;;;;;;;13.85;3.70;;;11.00;99.90;;;;;;5074618;28;20025;-69
2023/12/20 06:05:20;;;;;;;14.40;3.53;;;10.80;99.90;;;;;;5074997;28;20108;-69
2023/12/20 06:07:48;;;;;;;16.63;3.90;;;10.70;99.90;;;;;;5074611;28;20031;-69
2023/12/20 06:10:14;;;;;;;14.88;3.85;;;10.60;99.90;;;;;;5074473;28;20760;-69
2023/12/20 06:12:40;;;;;;;14.52;3.65;;;10.50;99.90;;;;;;5074583;28;20039;-69
2023/12/20 06:15:06;;;;;;;12.20;3.65;;;10.40;99.90;;;;;;5074276;28;20033;-69
2023/12/20 06:17:32;;;;;;;14.73;3.90;;;10.30;99.90;;;;;;5074385;28;20444;-69
2023/12/20 06:19:57;;;;;;;13.45;3.42;;;10.30;99.90;;;;;;5074208;28;20048;-69
2023/12/20 06:22:23;;;;;;;14.23;3.60;;;10.20;99.90;;;;;;5074464;28;20043;-69
2023/12/20 06:24:49;;;;;;;12.50;3.20;;;10.10;99.90;;;;;;5074096;28;20040;-69
2023/12/20 06:27:14;;;;;;;16.23;3.78;;;10.00;99.90;;;;;;5073970;28;20025;-69
2023/12/20 06:29:41;;;;;;;14.43;3.22;;;9.90;99.90;;;;;;5074109;28;20391;-69
2023/12/20 06:32:07;;;;;;;17.02;3.55;;;9.80;99.90;;;;;;5074439;28;20032;-69
2023/12/20 06:34:32;;;;;;;11.52;2.72;;;9.80;99.90;;;;;;5073980;28;20028;-69
2023/12/20 06:36:58;;;;;;;10.70;3.10;;;9.70;99.90;;;;;;5073811;28;20039;-69
2023/12/20 06:39:23;;;;;;;12.15;2.80;;;9.70;99.90;;;;;;5073625;28;20016;-69
2023/12/20 06:41:49;;;;;;;11.05;3.30;;;9.60;99.90;;;;;;5072815;28;20074;-69
2023/12/20 06:44:15;;;;;;;14.68;3.67;;;9.60;99.90;;;;;;5073546;28;20049;-69
2023/12/20 06:46:40;;;;;;;13.65;3.17;;;9.60;99.90;;;;;;5073798;28;20499;-69
2023/12/20 06:49:06;;;;;;;12.20;3.20;;;9.50;99.90;;;;;;5073806;28;20100;-69
2023/12/20 06:51:32;;;;;;;12.02;3.22;;;9.50;99.90;;;;;;5073567;28;20071;-69
2023/12/20 06:53:57;;;;;;;9.18;2.50;;;9.50;99.90;;;;;;5073046;28;20021;-69
2023/12/20 06:56:23;;;;;;;12.77;3.15;;;9.50;99.90;;;;;;5073610;28;20090;-70
2023/12/20 06:58:49;;;;;;;10.10;3.05;;;9.50;99.90;;;;;;5073608;28;20020;-70
2023/12/20 07:01:15;;;;;;;15.73;3.35;;;9.40;99.90;;;;;;5073891;28;20033;-70
2023/12/20 07:03:41;;;;;;;9.52;2.95;;;9.50;99.90;;;;;;5073533;28;20257;-69
2023/12/20 07:06:07;;;;;;;9.55;2.80;;;9.40;99.90;;;;;;5073275;28;20051;-69
2023/12/20 07:08:33;;;;;;;15.32;3.00;;;9.40;99.90;;;;;;5072986;28;20024;-69
2023/12/20 07:10:59;;;;;;;11.45;3.10;;;9.30;99.90;;;;;;5073405;28;20029;-69
2023/12/20 07:13:25;;;;;;;13.43;3.17;;;9.30;99.90;;;;;;5073373;28;20029;-69
2023/12/20 07:15:51;;;;;;;13.95;3.03;;;9.20;99.90;;;;;;5073284;28;20040;-68
2023/12/20 07:18:16;;;;;;;12.85;3.33;;;9.30;99.90;;;;;;5073240;28;20016;-69
2023/12/20 07:20:43;;;;;;;9.93;2.83;;;9.20;99.90;;;;;;5072912;28;20271;-72
2023/12/20 07:23:08;;;;;;;15.50;3.42;;;9.20;99.90;;;;;;5072880;28;20078;-73
2023/12/20 07:25:34;;;;;;;14.82;3.90;;;9.50;99.90;;;;;;5072719;28;20453;-72
2023/12/20 07:28:00;;;;;;;12.60;3.28;;;9.60;99.90;;;;;;5072737;28;20552;-72
2023/12/20 07:30:26;;;;;;;10.05;2.70;;;9.80;99.90;;;;;;5073072;28;20036;-72
2023/12/20 07:32:52;;;;;;;12.05;3.00;;;10.00;99.90;;;;;;5072664;28;20398;-72
2023/12/20 07:35:18;;;;;;;15.82;3.60;;;9.90;99.90;;;;;;5072842;28;20040;-72
2023/12/20 07:37:44;;;;;;;11.25;2.97;;;9.80;99.90;;;;;;5071105;28;20029;-72
2023/12/20 07:40:10;;;;;;;12.65;3.58;;;10.00;99.90;;;;;;5072441;28;20063;-72
2023/12/20 07:42:35;;;;;;;12.10;3.17;;;10.00;99.90;;;;;;5072592;28;20044;-72
2023/12/20 07:45:01;;;;;;;15.98;4.15;;;9.90;99.90;;;;;;5072421;28;20080;-72
2023/12/20 07:47:27;;;;;;;12.15;3.25;;;10.00;99.90;;;;;;5072926;28;20023;-72
2023/12/20 07:49:52;;;;;;;13.18;2.97;;;9.90;99.90;;;;;;5072643;28;20538;-71
2023/12/20 07:52:19;;;;;;;15.95;3.50;;;9.80;99.90;;;;;;5072207;28;20020;-72
2023/12/20 07:54:45;;;;;;;11.80;3.42;;;9.60;99.90;;;;;;5072381;28;20032;-71
2023/12/20 07:57:12;;;;;;;15.43;3.78;;;9.50;99.90;;;;;;5072495;28;20478;-72
2023/12/20 07:59:37;;;;;;;13.70;3.58;;;9.40;99.90;;;;;;5072873;28;20028;-72
2023/12/20 08:02:03;;;;;;;12.82;3.40;;;9.40;99.90;;;;;;5072226;28;20017;-71
2023/12/20 08:04:29;;;;;;;14.73;3.50;;;9.20;99.90;;;;;;5071954;28;20032;-71
2023/12/20 08:06:55;;;;;;;14.38;3.20;;;9.30;99.90;;;;;;5070686;28;20027;-71
2023/12/20 08:09:21;;;;;;;12.68;2.97;;;9.20;99.90;;;;;;5071782;28;20032;-70
2023/12/20 08:11:47;;;;;;;19.35;3.60;;;9.20;99.90;;;;;;5071405;28;20502;-71
2023/12/20 08:14:13;;;;;;;15.43;3.60;;;9.20;99.90;;;;;;5071292;28;20135;-71
2023/12/20 08:16:39;;;;;;;17.77;3.90;;;9.20;99.90;;;;;;5071155;28;20199;-71
2023/12/20 08:19:04;;;;;;;15.05;3.15;;;9.20;99.90;;;;;;5071616;28;20024;-71
2023/12/20 08:21:30;;;;;;;13.32;3.50;;;9.20;99.90;;;;;;5070889;28;20025;-72
2023/12/20 08:23:56;;;;;;;13.98;3.30;;;9.20;99.90;;;;;;5071157;28;20478;-72
2023/12/20 08:26:23;;;;;;;12.48;3.45;;;9.20;99.90;;;;;;5071079;28;20094;-71
2023/12/20 08:28:49;;;;;;;13.27;3.40;;;9.20;99.90;;;;;;5071178;28;20046;-71
2023/12/20 08:31:16;;;;;;;17.08;3.55;;;9.20;99.90;;;;;;5070971;28;20021;-71
2023/12/20 08:33:45;;;;;;;12.18;3.28;;;9.20;99.90;;;;;;5071042;28;20486;-71
2023/12/20 08:36:12;;;;;;;13.15;3.05;;;9.20;99.90;;;;;;5069614;28;20513;-72
2023/12/20 08:38:37;;;;;;;15.18;4.00;;;9.20;99.90;;;;;;5071421;28;20025;-71
2023/12/20 08:41:05;;;;;;;11.18;3.60;;;9.20;99.90;;;;;;5071033;28;20040;-71
2023/12/20 08:43:42;;;;;;;18.40;4.45;;;9.20;99.90;;;;;;5070990;28;20036;-72
2023/12/20 08:46:11;;;;;;;15.00;3.42;;;9.20;99.90;;;;;;5071265;28;20581;-72
2023/12/20 08:48:37;;;;;;;16.20;4.22;;;9.20;99.90;;;;;;5070903;28;20028;-72
2023/12/20 08:51:04;;;;;;;16.65;4.97;;;9.30;99.90;;;;;;5070687;28;20036;-72
2023/12/20 08:53:29;;;;;;;15.15;3.72;;;9.20;99.90;;;;;;5070625;28;20025;-72
2023/12/20 08:55:55;;;;;;;17.42;4.15;;;9.20;99.90;;;;;;5070903;28;20078;-72
2023/12/20 08:58:21;;;;;;;19.50;4.50;;;9.30;99.90;;;;;;5070976;28;20032;-71
2023/12/20 09:00:47;;;;;;;13.65;3.47;;;9.30;99.90;;;;;;5070830;28;20040;-72
2023/12/20 09:03:12;;;;;;;16.05;4.28;;;9.30;99.90;;;;;;5071255;28;20048;-72
2023/12/20 09:05:38;;;;;;;16.80;4.03;;;9.30;99.90;;;;;;5070392;28;20108;-72
2023/12/20 09:08:04;;;;;;;16.10;4.18;;;9.30;99.90;;;;;;5070781;28;20066;-72
2023/12/20 09:10:30;;;;;;;15.70;3.85;;;9.30;99.90;;;;;;5070958;28;20314;-71
2023/12/20 09:12:56;;;;;;;17.23;4.20;;;9.30;99.90;;;;;;5071026;28;20402;-73
2023/12/20 09:15:26;;;;;;;17.05;4.18;;;9.40;99.90;;;;;;5070314;28;20048;-72
2023/12/20 09:17:53;;;;;;;13.85;3.95;;;9.50;99.90;;;;;;5073924;28;20025;-72
2023/12/20 09:20:19;;;;;;;16.23;4.05;;;9.70;99.90;;;;;;5074281;28;20024;-72
2023/12/20 09:22:45;;;;;;;13.65;3.78;;;9.80;99.90;;;;;;5074426;28;20043;-72
2023/12/20 09:25:12;;;;;;;19.00;5.10;;;9.90;99.90;;;;;;5074537;28;20032;-73
2023/12/20 09:27:38;;;;;;;13.07;4.32;;;10.10;99.90;;;;;;5074883;28;20092;-72
2023/12/20 09:30:05;;;;;;;21.33;6.57;;;10.20;99.90;;;;;;5074397;28;20032;-73
2023/12/20 09:32:31;;;;;;;20.30;6.22;;;10.20;99.90;;;;;;5074315;28;20032;-72
2023/12/20 09:34:57;;;;;;;15.40;4.50;;;10.20;99.90;;;;;;5074248;28;20093;-72
2023/12/20 09:37:26;;;;;;;16.15;5.35;;;10.20;99.90;;;;;;5074226;28;20032;-72
2023/12/20 09:39:51;;;;;;;17.25;5.78;;;10.20;99.90;;;;;;5074478;28;20074;-72
2023/12/20 09:42:29;;;;;;;16.77;4.82;;;10.20;99.90;;;;;;5074112;28;20480;-72
2023/12/20 09:44:58;;;;;;;17.52;4.90;;;10.20;99.90;;;;;;5073893;28;20472;-71
2023/12/20 09:47:24;;;;;;;19.05;4.47;;;10.10;99.90;;;;;;5073971;28;20494;-72
2023/12/20 09:49:51;;;;;;;18.25;4.47;;;10.00;99.90;;;;;;5074071;28;20444;-72
2023/12/20 09:52:18;;;;;;;15.98;4.45;;;9.90;99.90;;;;;;5073896;28;20024;-71
2023/12/20 09:54:47;;;;;;;13.88;3.83;;;9.90;99.90;;;;;;5073782;28;20024;-71
2023/12/20 09:57:13;;;;;;;14.45;4.10;;;9.90;99.90;;;;;;5074452;28;20103;-71
2023/12/20 09:59:39;;;;;;;16.05;4.30;;;9.90;99.90;;;;;;5074022;28;20115;-72
2023/12/20 10:02:11;;;;;;;13.75;3.83;;;9.90;99.90;;;;;;5073617;28;20429;-71
2023/12/20 10:04:37;;;;;;;18.58;4.43;;;9.90;99.90;;;;;;5073595;28;20060;-72
2023/12/20 10:07:06;;;;;;;15.10;4.28;;;9.90;99.90;;;;;;5074052;28;20086;-72
2023/12/20 10:09:32;;;;;;;13.85;3.88;;;9.90;99.90;;;;;;5073712;28;20111;-72
2023/12/20 10:11:58;;;;;;;14.68;4.43;;;9.80;99.90;;;;;;5073605;28;20032;-72
2023/12/20 10:14:24;;;;;;;16.70;4.28;;;9.90;99.90;;;;;;5073364;28;20098;-72
2023/12/20 10:16:50;;;;;;;16.25;4.15;;;9.90;99.90;;;;;;5073547;28;20471;-72
2023/12/20 10:19:19;;;;;;;14.57;4.03;;;9.80;99.90;;;;;;5073236;28;20085;-72
2023/12/20 10:21:45;;;;;;;15.80;4.40;;;9.80;99.90;;;;;;5073902;28;20406;-72
2023/12/20 10:24:17;;;;;;;14.50;4.38;;;9.80;99.90;;;;;;5073441;28;20021;-72
2023/12/20 10:26:43;;;;;;;14.13;3.97;;;9.80;99.90;;;;;;5073168;28;20033;-72
2023/12/20 10:29:09;;;;;;;17.95;4.15;;;9.80;99.90;;;;;;5073023;28;20070;-72
2023/12/20 10:31:36;;;;;;;14.00;3.60;;;9.80;99.90;;;;;;5072582;28;20056;-72
2023/12/20 10:34:02;;;;;;;18.52;4.32;;;9.90;99.90;;;;;;5073405;28;20103;-71
2023/12/20 10:36:30;;;;;;;16.88;4.00;;;9.90;99.90;;;;;;5073092;28;20566;-71
2023/12/20 10:38:59;;;;;;;13.52;3.83;;;10.00;99.90;;;;;;5072870;28;20021;-72
2023/12/20 10:41:28;;;;;;;16.88;3.92;;;10.00;99.90;;;;;;5072203;28;20380;-72
2023/12/20 10:44:00;;;;;;;13.43;3.67;;;10.10;99.90;;;;;;5072444;28;20059;-71
2023/12/20 10:46:28;;;;;;;12.65;3.40;;;10.10;99.90;;;;;;5072041;28;20033;-72
2023/12/20 10:48:55;;;;;;;16.40;3.78;;;10.20;99.90;;;;;;5072989;28;20028;-71
2023/12/20 10:51:21;;;;;;;11.52;3.38;;;10.20;99.90;;;;;;5072564;28;20112;-72
2023/12/20 10:53:50;;;;;;;12.00;3.20;;;10.30;99.90;;;;;;5073061;28;20493;-71
2023/12/20 10:56:18;;;;;;;15.82;3.70;;;10.40;99.90;;;;;;5072698;28;20174;-72
2023/12/20 10:58:44;;;;;;;10.20;3.30;;;10.50;99.90;;;;;;5072306;28;20067;-72
2023/12/20 11:01:14;;;;;;;12.40;3.80;;;10.60;99.90;;;;;;5072149;28;20455;-72
2023/12/20 11:03:52;;;;;;;17.05;3.97;;;10.60;99.90;;;;;;5072367;28;20449;-72
2023/12/20 11:06:49;;;;;;;13.50;3.47;;;10.60;99.90;;;;;;5072304;28;20032;-72
2023/12/20 11:09:23;;;;;;;13.43;3.72;;;10.70;99.90;;;;;;5072797;28;20029;-72
2023/12/20 11:12:16;;;;;;;15.70;4.20;;;10.90;99.90;;;;;;5072927;28;20023;-72
2023/12/20 11:14:48;;;;;;;8.90;3.28;;;11.10;99.90;;;;;;5072882;28;20082;-72
2023/12/20 11:17:16;;;;;;;12.10;3.80;;;11.20;99.90;;;;;;5072382;28;20406;-72
2023/12/20 11:19:57;;;;;;;14.90;3.70;;;11.30;99.90;;;;;;5072218;28;20491;-72
2023/12/20 11:22:29;;;;;;;11.57;3.38;;;11.40;99.90;;;;;;5072244;28;20105;-72
2023/12/20 11:25:03;;;;;;;10.52;3.72;;;11.50;99.90;;;;;;5072323;28;20032;-73
2023/12/20 11:27:30;;;;;;;11.40;3.00;;;11.50;99.90;;;;;;5071928;28;20082;-73
2023/12/20 11:29:58;;;;;;;14.48;3.42;;;11.50;99.90;;;;;;5071638;28;20043;-73
2023/12/20 11:34:56;;;;;;;11.75;3.85;;;11.70;99.90;;;;;;5071654;28;20032;-72
2023/12/20 11:37:22;;;;;;;13.25;3.60;;;11.80;99.90;;;;;;5071869;28;20031;-72
2023/12/20 11:40:09;;;;;;;13.90;3.85;;;11.60;99.90;;;;;;5071102;28;20026;-72
2023/12/20 11:42:51;;;;;;;13.80;3.25;;;11.50;99.90;;;;;;5071518;28;20031;-72
2023/12/20 11:45:21;;;;;;;12.40;3.00;;;11.40;99.90;;;;;;5071185;28;20048;-72
2023/12/20 11:47:51;;;;;;;8.00;2.47;;;11.30;99.90;;;;;;5071653;28;20477;-72
2023/12/20 11:50:18;;;;;;;9.82;2.80;;;11.20;99.90;;;;;;5071551;28;20028;-72
2023/12/20 11:52:43;;;;;;;11.40;3.10;;;11.10;99.90;;;;;;5071860;28;20137;-73
2023/12/20 11:55:09;;;;;;;11.55;2.85;;;11.10;99.90;;;;;;5071455;28;20130;-72
2023/12/20 11:57:36;;;;;;;8.40;2.13;;;11.00;99.90;;;;;;5071334;28;20033;-72
2023/12/20 12:00:03;;;;;;;7.82;1.98;;;11.00;99.90;;;;;;5071616;28;20075;-72
2023/12/20 12:02:29;;;;;;;8.23;2.00;;;10.90;99.90;;;;;;5071271;28;20035;-72
2023/12/20 12:04:56;;;;;;;11.00;2.17;;;10.90;99.90;;;;;;5071396;28;20025;-72
2023/12/20 12:07:22;;;;;;;9.63;2.60;;;10.90;99.90;;;;;;5071313;28;20039;-72
2023/12/20 12:09:48;;;;;;;8.93;2.10;;;10.90;99.90;;;;;;5071347;28;20567;-72
2023/12/20 12:12:14;;;;;;;9.68;2.33;;;10.90;99.90;;;;;;5071163;28;20029;-72
2023/12/20 12:14:43;;;;;;;9.80;1.75;;;10.90;99.90;;;;;;5070521;28;20387;-72
2023/12/20 12:17:15;;;;;;;10.35;2.58;;;10.90;99.90;;;;;;5071074;28;20036;-72
2023/12/20 12:19:41;;;;;;;6.72;2.38;;;11.00;99.90;;;;;;5071147;28;20031;-71
2023/12/20 12:22:14;;;;;;;9.32;2.35;;;11.00;99.90;;;;;;5071276;28;20029;-71
2023/12/20 12:24:49;;;;;;;9.75;2.30;;;11.00;99.90;;;;;;5071403;28;20028;-72
2023/12/20 12:27:15;;;;;;;10.52;2.70;;;11.00;99.90;;;;;;5071498;28;20029;-71
2023/12/20 12:29:59;;;;;;;7.75;2.20;;;11.00;99.90;;;;;;5070774;28;20058;-71
2023/12/20 12:32:25;;;;;;;8.25;2.10;;;10.90;99.90;;;;;;5071018;28;20513;-72
2023/12/20 12:34:51;;;;;;;8.43;2.50;;;10.90;99.90;;;;;;5070922;28;20039;-72
2023/12/20 12:37:17;;;;;;;7.40;2.40;;;10.90;99.90;;;;;;5071108;28;20025;-72
2023/12/20 12:39:42;;;;;;;9.45;2.78;;;10.90;99.90;;;;;;5070745;28;20017;-72